Fruitdale, Alabama
Current Conditions -  °F | °C
As of 11:56 AM on Tuesday 21 Oct 2014 (Local Time) from KMOB Reporting Station
Clear Clear  
Wind Chill: 74°   Ceiling: Unl
Heat Index: 74°   Visibility: 10mi
Dew Point: 53°   Wind: 8mph
Humidity: 48%   Direction: 10°N
Pressure: 30.06"   Gusts: NA
Location:  31.34°N, 88.41°W
Report Text: KMOB 211656Z 01007KT 10SM CLR 23/12 A3006 RMK AO2 SLP175 T02330117
Loading
Personal Weather Stations






























Interactive Weather Map
Tropical Storm Tracking
New forecast layout! Learn more

10-Day Weather Forecast

Advertisements
Track Severe Weather on mobile